West Union, SC (29696)

01:56 AM EDT del 01 Settembre 2015 (GMT -0400)
Walhalla (Library) | | Change Station
CLOSE
Current Station
Stazione meteo personale
Location: Walhalla, SC
Altitudine: 1060 ft
Stazioni meteo nelle vicinanze

Alt. 1060 ft 34.76 °N, 83.07 °W | Updated 6 minutes ago

Sereno
Sereno
67.6 °F
Sembra 67.6 °F
N
0.0
Vento Variabile Vento da ESE

Oggi
Massima -- | Minima -- °F
--% Possibilità di precip.
Ieri
Massima -- | Minima -- °F
Precip. -- in
7:04 AM 7:58 PM
Gobba a levante, 91% visible
Pressione 30.09 in
Visibilità 10.0 miglia
Nuvole Sereno
Punto di rugiada 63 °F
Umidità 86%
Piovosità in
Spessore del manto nevoso Non disponibile.
Raggi UV 0 fuori da 12
Polline 7.00 fuori da 12
Qualità dell'aria Non disponibile.
Flu Activity Non disponibile.
METAR KCEU 010554Z AUTO 26003KT 10SM CLR 23/19 A3012 RMK AO2 SLP189 T02280189 10272 20222 58002
Pressione 30.09 in
Visibilità 10.0 miglia
Nuvole Sereno
Punto di rugiada 63 °F
Umidità 86%
Piovosità in
Spessore del manto nevoso Non disponibile.
Raggi UV 0 fuori da 12
Polline 7.00 fuori da 12
Qualità dell'aria Non disponibile.
Flu Activity Non disponibile.
METAR KCEU 010554Z AUTO 26003KT 10SM CLR 23/19 A3012 RMK AO2 SLP189 T02280189 10272 20222 58002

10-Day Weather Forecast

×

Almanac

Astronomia

Sep. 01, 2015 Alba Tramonto
Ora attuale
Crepuscolo civile
Crepuscolo nautico
Crepuscolo astronomico
Luna
Estensione della luce visibile
Lunghezza del giorno
Tomorrow will be .
, % of the Moon is Illuminated

Gli estremi di oggi

State Highs State Lows

Community

WunderPhotos

Upload Photos

1,851,484 foto caricate!

WunderBlogs® & News

Nearby

Qualità dell'aria

  Qualità dell'aria Indice AQ Inquinante
Not available.

Profondità neve

Stazione Profondità Altitudine

Attività sismica

Città  Distanza Mag. Data & Ora
Minimo Magnitudo Mostrato è 2.5.

Temperature delle acque costiere

Località Temperatura

Stations

Stazioni meteo nelle vicinanze

Ubicazione della stazione Temp. Raffreddamento del vento Punto di rugiada Umidità Vento Precip. Alt. Aggiornato Tipo